createdAt,value
2022-10-28T00:01:26.845Z,78.25
2022-10-28T00:03:56.963Z,78.05
2022-10-28T00:06:27.131Z,78.16
2022-10-28T00:08:55.945Z,78.38
2022-10-28T00:11:26.851Z,78.48
2022-10-28T00:13:57.791Z,78.58
2022-10-28T00:16:29.651Z,78.79
2022-10-28T00:18:59.991Z,78.83
2022-10-28T00:21:30.703Z,79.00
2022-10-28T00:23:59.230Z,79.22
2022-10-28T00:26:29.187Z,79.39
2022-10-28T00:29:00.971Z,79.47
2022-10-28T00:31:32.022Z,79.24
2022-10-28T00:34:02.807Z,79.17
2022-10-28T00:36:32.994Z,79.18
2022-10-28T00:39:03.221Z,79.28
2022-10-28T00:41:32.927Z,79.44
2022-10-28T00:44:04.439Z,79.07
2022-10-28T00:46:40.088Z,78.99
2022-10-28T00:49:16.394Z,78.94
2022-10-28T00:51:47.598Z,79.35
2022-10-28T00:54:17.722Z,79.45
2022-10-28T00:56:49.506Z,79.54
2022-10-28T00:59:22.934Z,79.68
2022-10-28T01:01:51.492Z,79.98
2022-10-28T01:04:21.039Z,79.76
2022-10-28T01:06:50.098Z,79.54
2022-10-28T01:09:18.397Z,79.69
2022-10-28T01:12:00.761Z,79.40
2022-10-28T01:14:43.542Z,79.50
2022-10-28T01:17:25.287Z,79.43
2022-10-28T01:20:49.949Z,79.30
2022-10-28T01:23:26.596Z,79.63
2022-10-28T01:26:37.805Z,79.34
2022-10-28T01:29:50.061Z,79.33
2022-10-28T01:32:28.326Z,79.63
2022-10-28T01:35:07.763Z,79.27
2022-10-28T01:37:39.463Z,79.44
2022-10-28T01:40:10.740Z,79.28
2022-10-28T01:42:45.553Z,79.14
2022-10-28T01:45:20.343Z,79.50
2022-10-28T01:47:58.985Z,79.43
2022-10-28T01:50:33.882Z,79.72
2022-10-28T01:53:08.572Z,80.00
2022-10-28T01:55:41.072Z,80.10
2022-10-28T01:58:15.378Z,80.09
2022-10-28T02:00:45.996Z,80.49
2022-10-28T02:03:18.131Z,80.72
2022-10-28T02:05:48.579Z,80.49
2022-10-28T02:09:07.927Z,80.46
2022-10-28T02:11:47.151Z,80.98
2022-10-28T02:14:29.626Z,81.46
2022-10-28T02:17:03.652Z,81.41
2022-10-28T02:19:44.942Z,81.08
2022-10-28T02:22:20.767Z,81.00
2022-10-28T02:24:56.649Z,80.80
2022-10-28T02:27:35.207Z,80.19
2022-10-28T02:30:08.105Z,80.65
2022-10-28T02:32:40.623Z,80.16
2022-10-28T02:35:15.792Z,80.24
2022-10-28T02:37:46.424Z,80.60
2022-10-28T02:40:19.403Z,80.57
2022-10-28T02:42:51.723Z,80.67
2022-10-28T02:45:25.300Z,80.38
2022-10-28T02:47:59.342Z,80.41
2022-10-28T02:50:33.514Z,80.23
2022-10-28T02:53:05.894Z,80.30
2022-10-28T02:55:38.666Z,80.04
2022-10-28T02:58:07.903Z,80.07
2022-10-28T03:00:36.194Z,80.24
2022-10-28T03:03:05.272Z,80.20
2022-10-28T03:05:34.991Z,80.33
2022-10-28T03:08:03.353Z,80.29
2022-10-28T03:10:31.622Z,80.12
2022-10-28T03:12:59.893Z,79.80
2022-10-28T03:15:28.163Z,80.00
2022-10-28T03:17:56.531Z,80.13
2022-10-28T03:20:24.798Z,80.45
2022-10-28T03:22:54.792Z,80.28
2022-10-28T03:25:23.404Z,80.03
2022-10-28T03:27:51.584Z,79.85
2022-10-28T03:30:19.943Z,79.73
2022-10-28T03:32:48.122Z,79.54
2022-10-28T03:35:16.472Z,79.48
2022-10-28T03:37:44.894Z,79.90
2022-10-28T03:40:15.240Z,79.82
2022-10-28T03:42:43.644Z,79.79
2022-10-28T03:45:12.587Z,79.71
2022-10-28T03:47:41.509Z,79.87
2022-10-28T03:50:10.566Z,79.48
2022-10-28T03:52:39.097Z,79.46
2022-10-28T03:55:07.805Z,79.52
2022-10-28T03:57:38.030Z,79.40
2022-10-28T04:00:07.395Z,79.39
2022-10-28T04:02:42.019Z,79.42
2022-10-28T04:05:10.600Z,79.85
2022-10-28T04:07:38.814Z,79.76
2022-10-28T04:10:07.822Z,79.74
2022-10-28T04:12:37.541Z,79.71
2022-10-28T04:15:06.554Z,79.66
2022-10-28T04:17:35.851Z,79.68
2022-10-28T04:20:04.287Z,79.84
2022-10-28T04:22:32.587Z,79.99
2022-10-28T04:25:00.860Z,80.04
2022-10-28T04:27:29.065Z,80.29
2022-10-28T04:29:58.813Z,80.42
2022-10-28T04:32:27.031Z,80.73
2022-10-28T04:34:55.295Z,80.94
2022-10-28T04:37:23.665Z,81.07
2022-10-28T04:39:51.856Z,81.26
2022-10-28T04:42:20.074Z,81.54
2022-10-28T04:44:48.287Z,81.69
2022-10-28T04:47:18.072Z,81.48
2022-10-28T04:49:46.437Z,81.28
2022-10-28T04:52:15.861Z,80.97
2022-10-28T04:54:44.357Z,81.18
2022-10-28T04:57:12.643Z,81.45
2022-10-28T04:59:40.854Z,81.27
2022-10-28T05:02:09.300Z,81.02
2022-10-28T05:04:38.950Z,80.79
2022-10-28T05:07:07.746Z,80.60
2022-10-28T05:09:36.030Z,80.36
2022-10-28T05:12:04.805Z,80.33
2022-10-28T05:14:33.358Z,80.26
2022-10-28T05:17:01.645Z,80.49
2022-10-28T05:19:29.871Z,80.53
2022-10-28T05:21:59.547Z,80.28
2022-10-28T05:24:27.757Z,80.25
2022-10-28T05:26:56.085Z,80.12
2022-10-28T05:29:24.332Z,80.17
2022-10-28T05:31:52.585Z,79.98
2022-10-28T05:34:20.798Z,79.59
2022-10-28T05:36:50.513Z,79.27
2022-10-28T05:39:20.217Z,79.24
2022-10-28T05:41:49.534Z,79.19
2022-10-28T05:44:17.752Z,79.42
2022-10-28T05:46:46.037Z,79.04
2022-10-28T05:49:14.236Z,79.31
2022-10-28T05:51:42.519Z,78.91
2022-10-28T05:54:10.831Z,78.78
2022-10-28T05:56:40.553Z,78.52
2022-10-28T05:59:08.759Z,78.80
2022-10-28T06:01:37.118Z,79.08
2022-10-28T06:04:06.598Z,78.78
2022-10-28T06:06:34.940Z,78.63
2022-10-28T06:09:03.245Z,78.91
2022-10-28T06:11:30.074Z,78.89
2022-10-28T06:13:59.783Z,79.13
2022-10-28T06:16:28.119Z,79.10
2022-10-28T06:18:56.992Z,78.93
2022-10-28T06:21:25.203Z,78.63
2022-10-28T06:23:53.451Z,78.68
2022-10-28T06:26:21.706Z,78.75
2022-10-28T06:28:49.983Z,78.87
2022-10-28T06:31:19.665Z,78.66
2022-10-28T06:33:48.899Z,78.59
2022-10-28T06:36:17.185Z,78.93
2022-10-28T06:38:46.106Z,78.99
2022-10-28T06:41:14.416Z,78.68
2022-10-28T06:43:42.655Z,78.42
2022-10-28T06:46:11.060Z,78.64
2022-10-28T06:48:42.234Z,78.56
2022-10-28T06:51:10.561Z,78.36
2022-10-28T06:53:38.808Z,78.50
2022-10-28T06:56:07.927Z,78.45
2022-10-28T06:58:36.396Z,78.51
2022-10-28T07:01:05.761Z,78.77
2022-10-28T07:03:34.384Z,79.16
2022-10-28T07:06:04.125Z,78.96
2022-10-28T07:08:32.819Z,79.21
2022-10-28T07:11:02.641Z,79.34
2022-10-28T07:13:31.279Z,79.20
2022-10-28T07:16:01.363Z,79.13
2022-10-28T07:18:31.148Z,79.49
2022-10-28T07:21:00.376Z,80.04
2022-10-28T07:23:31.718Z,80.27
2022-10-28T07:26:00.107Z,80.04
2022-10-28T07:28:29.381Z,80.20
2022-10-28T07:31:01.995Z,80.72
2022-10-28T07:33:30.576Z,80.68
2022-10-28T07:35:58.736Z,80.63
2022-10-28T07:38:27.672Z,79.80
2022-10-28T07:40:57.367Z,79.23
2022-10-28T07:43:25.705Z,78.48
2022-10-28T07:45:57.640Z,78.04
2022-10-28T07:48:25.956Z,77.51
2022-10-28T07:50:54.197Z,76.77
2022-10-28T07:53:24.855Z,75.50
2022-10-28T07:55:58.728Z,74.61
2022-10-28T07:58:27.152Z,74.37
2022-10-28T08:00:55.688Z,74.25
2022-10-28T08:03:31.100Z,74.34
2022-10-28T08:06:04.694Z,74.24
2022-10-28T08:08:32.852Z,74.16
2022-10-28T08:11:10.204Z,73.79
2022-10-28T08:13:40.142Z,73.86
2022-10-28T08:16:09.663Z,74.14
2022-10-28T08:18:38.778Z,74.73
2022-10-28T08:21:09.468Z,74.94
2022-10-28T08:23:38.843Z,74.94
2022-10-28T08:26:08.824Z,74.91
2022-10-28T08:28:37.022Z,75.10
2022-10-28T08:31:09.577Z,74.63
2022-10-28T08:33:39.176Z,74.42
2022-10-28T08:36:08.495Z,74.45
2022-10-28T08:38:37.520Z,74.32
2022-10-28T08:41:23.039Z,74.29
2022-10-28T08:44:05.380Z,74.41
2022-10-28T08:46:48.702Z,74.58
2022-10-28T08:49:21.011Z,74.99
2022-10-28T08:51:55.138Z,74.61
2022-10-28T08:54:28.708Z,74.73
2022-10-28T08:57:01.038Z,74.04
2022-10-28T08:59:35.062Z,73.95
2022-10-28T09:02:13.872Z,73.75
2022-10-28T09:04:44.997Z,74.06
2022-10-28T09:07:18.665Z,74.31
2022-10-28T09:09:47.523Z,74.48
2022-10-28T09:12:29.892Z,73.58
2022-10-28T09:15:14.893Z,73.85
2022-10-28T09:17:53.418Z,73.77
2022-10-28T09:20:28.451Z,73.48
2022-10-28T09:22:58.758Z,73.12
2022-10-28T09:25:34.541Z,73.06
2022-10-28T09:28:22.770Z,73.19
2022-10-28T09:30:59.302Z,73.53
2022-10-28T09:33:45.098Z,73.27
2022-10-28T09:36:18.855Z,73.16
2022-10-28T09:38:47.257Z,72.80
2022-10-28T09:41:20.917Z,72.78
2022-10-28T09:43:54.581Z,72.69
2022-10-28T09:46:25.230Z,72.83
2022-10-28T09:48:57.741Z,72.43
2022-10-28T09:51:33.455Z,71.59
2022-10-28T09:54:02.570Z,71.99
2022-10-28T09:56:32.033Z,72.14
2022-10-28T09:59:03.869Z,72.10
2022-10-28T10:01:34.527Z,71.70
2022-10-28T10:04:03.238Z,71.52
2022-10-28T10:06:36.683Z,71.80
2022-10-28T10:09:05.568Z,71.91
2022-10-28T10:11:38.363Z,72.16
2022-10-28T10:14:11.269Z,72.45
2022-10-28T10:16:43.859Z,72.32
2022-10-28T10:19:13.083Z,71.97
2022-10-28T10:21:43.701Z,71.50
2022-10-28T10:24:33.202Z,71.08
2022-10-28T10:27:04.111Z,70.70
2022-10-28T10:29:35.862Z,70.52
2022-10-28T10:32:16.577Z,70.48
2022-10-28T10:34:47.657Z,70.23
2022-10-28T10:37:21.398Z,69.51
2022-10-28T10:40:02.661Z,69.89
2022-10-28T10:42:30.908Z,69.62
2022-10-28T10:45:04.350Z,69.34
2022-10-28T10:47:32.661Z,68.71
2022-10-28T10:50:22.216Z,67.94
2022-10-28T10:52:56.980Z,68.15
2022-10-28T10:55:50.457Z,67.46
2022-10-28T10:58:21.257Z,67.40
2022-10-28T11:00:52.908Z,67.23
2022-10-28T11:03:27.147Z,66.27
2022-10-28T11:06:18.275Z,65.84
2022-10-28T11:08:46.077Z,66.17
2022-10-28T11:11:16.353Z,65.69
2022-10-28T11:13:46.224Z,65.95
2022-10-28T11:16:23.734Z,65.88
2022-10-28T11:18:53.711Z,66.47
2022-10-28T11:21:48.065Z,66.67
2022-10-28T11:24:53.217Z,66.73
2022-10-28T11:27:35.616Z,66.77
2022-10-28T11:30:04.589Z,66.48
2022-10-28T11:33:01.445Z,66.14
2022-10-28T11:35:46.696Z,65.57
2022-10-28T11:38:28.555Z,65.09
2022-10-28T11:41:15.124Z,65.65
2022-10-28T11:43:54.830Z,65.45
2022-10-28T11:46:36.348Z,65.38
2022-10-28T11:49:37.381Z,65.69
2022-10-28T11:52:19.042Z,65.41
2022-10-28T11:55:04.061Z,64.50
2022-10-28T11:57:45.506Z,64.17
2022-10-28T12:00:39.862Z,64.82
2022-10-28T12:03:29.112Z,63.89
2022-10-28T12:06:11.004Z,63.47
2022-10-28T12:08:53.113Z,63.14
2022-10-28T12:11:30.093Z,63.00
2022-10-28T12:14:06.718Z,62.25
2022-10-28T12:16:43.723Z,62.42
2022-10-28T12:19:17.537Z,62.31
2022-10-28T12:22:01.299Z,63.08
2022-10-28T12:24:35.268Z,63.46
2022-10-28T12:27:15.374Z,63.18
2022-10-28T12:29:51.082Z,62.76
2022-10-28T12:32:23.892Z,61.97
2022-10-28T12:34:59.323Z,61.47
2022-10-28T12:37:35.252Z,61.19
2022-10-28T12:40:09.135Z,61.44
2022-10-28T12:42:41.278Z,60.77
2022-10-28T12:45:15.153Z,59.86
2022-10-28T12:47:49.768Z,59.62
2022-10-28T12:50:26.710Z,59.24
2022-10-28T12:53:17.989Z,58.96
2022-10-28T12:55:51.725Z,57.38
2022-10-28T12:58:25.888Z,58.47
2022-10-28T13:00:57.789Z,57.72
2022-10-28T13:03:26.183Z,58.06
2022-10-28T13:06:07.357Z,57.68
2022-10-28T13:09:06.847Z,58.53
2022-10-28T13:12:19.757Z,59.46
2022-10-28T13:15:15.730Z,58.99
2022-10-28T13:17:53.560Z,59.66
2022-10-28T13:20:39.649Z,59.76
2022-10-28T13:23:27.794Z,59.75
2022-10-28T13:26:06.501Z,59.69
2022-10-28T13:28:37.013Z,59.74
2022-10-28T13:31:08.543Z,59.67
2022-10-28T13:33:39.041Z,59.05
2022-10-28T13:36:16.746Z,59.26
2022-10-28T13:38:51.322Z,59.11
2022-10-28T13:41:39.125Z,59.46
2022-10-28T13:44:31.153Z,59.40
2022-10-28T13:47:28.066Z,59.60
2022-10-28T13:50:40.632Z,60.46
2022-10-28T13:53:53.020Z,60.00
2022-10-28T13:56:29.088Z,59.28
2022-10-28T13:59:01.188Z,60.02
2022-10-28T14:02:07.327Z,59.45
2022-10-28T14:04:44.098Z,58.52
2022-10-28T14:07:22.753Z,58.55
2022-10-28T14:09:56.990Z,59.22
2022-10-28T14:12:31.246Z,59.59
2022-10-28T14:15:18.875Z,59.92
2022-10-28T14:17:51.473Z,59.98
2022-10-28T14:20:30.832Z,59.88
2022-10-28T14:23:00.032Z,59.77
2022-10-28T14:26:05.583Z,59.94
2022-10-28T14:28:53.417Z,60.04
2022-10-28T14:31:40.337Z,60.28
2022-10-28T14:34:45.104Z,59.73
2022-10-28T14:37:32.489Z,60.07
2022-10-28T14:40:17.617Z,60.69
2022-10-28T14:43:08.245Z,60.70
2022-10-28T14:45:46.353Z,60.84
2022-10-28T14:48:32.361Z,60.66
2022-10-28T14:51:03.507Z,60.36
2022-10-28T14:53:35.395Z,61.12
2022-10-28T14:56:07.976Z,60.25
2022-10-28T14:58:39.454Z,60.98
2022-10-28T15:01:23.003Z,60.71
2022-10-28T15:03:56.998Z,61.14
2022-10-28T15:06:46.816Z,61.56
2022-10-28T15:09:20.008Z,62.10
2022-10-28T15:11:51.438Z,62.12
2022-10-28T15:14:32.431Z,62.42
2022-10-28T15:17:05.349Z,62.89
2022-10-28T15:19:36.835Z,63.06
2022-10-28T15:22:08.479Z,63.46
2022-10-28T15:24:36.781Z,63.98
2022-10-28T15:27:05.595Z,64.50
2022-10-28T15:29:33.982Z,64.81
2022-10-28T15:32:12.440Z,64.68
2022-10-28T15:34:43.160Z,65.25
2022-10-28T15:37:18.988Z,65.36
2022-10-28T15:39:48.399Z,65.84
2022-10-28T15:42:32.944Z,65.73
2022-10-28T15:45:01.396Z,66.30
2022-10-28T15:47:33.177Z,66.41
2022-10-28T15:50:07.090Z,66.34
2022-10-28T15:52:37.700Z,66.98
2022-10-28T15:56:07.014Z,66.79
2022-10-28T15:58:36.761Z,67.38
2022-10-28T16:01:09.514Z,67.71
2022-10-28T16:03:46.317Z,67.96
2022-10-28T16:06:26.026Z,68.52
2022-10-28T16:09:07.272Z,68.52
2022-10-28T16:11:39.466Z,69.01
2022-10-28T16:14:24.678Z,68.97
2022-10-28T16:16:54.086Z,69.66
2022-10-28T16:19:29.827Z,70.00
2022-10-28T16:21:59.566Z,70.63
2022-10-28T16:24:27.785Z,70.81
2022-10-28T16:26:56.381Z,71.10
2022-10-28T16:29:24.590Z,71.73
2022-10-28T16:31:53.553Z,71.53
2022-10-28T16:34:21.765Z,71.35
2022-10-28T16:36:49.980Z,71.34
2022-10-28T16:39:19.661Z,71.27
2022-10-28T16:41:48.327Z,71.61
2022-10-28T16:44:19.383Z,72.03
2022-10-28T16:46:47.643Z,72.51
2022-10-28T16:49:15.875Z,72.61
2022-10-28T16:51:45.686Z,72.71
2022-10-28T16:54:13.988Z,72.71
2022-10-28T16:56:43.637Z,72.69
2022-10-28T16:59:11.977Z,72.91
2022-10-28T17:01:40.363Z,72.88
2022-10-28T17:04:10.325Z,72.94
2022-10-28T17:06:38.573Z,73.27
2022-10-28T17:09:06.824Z,73.43
2022-10-28T17:11:35.159Z,73.50
2022-10-28T17:14:04.798Z,73.71
2022-10-28T17:16:33.091Z,73.76
2022-10-28T17:19:01.465Z,73.85
2022-10-28T17:21:29.769Z,73.73
2022-10-28T17:23:58.043Z,73.62
2022-10-28T17:26:27.246Z,73.46
2022-10-28T17:28:55.546Z,73.61
2022-10-28T17:31:25.758Z,73.75
2022-10-28T17:33:55.685Z,73.61
2022-10-28T17:36:25.095Z,73.59
2022-10-28T17:38:53.385Z,73.70
2022-10-28T17:41:22.660Z,73.50
2022-10-28T17:43:54.263Z,73.59
2022-10-28T17:46:24.264Z,73.60
2022-10-28T17:48:52.463Z,73.73
2022-10-28T17:51:22.360Z,73.84
2022-10-28T17:53:54.548Z,74.20
2022-10-28T17:56:22.997Z,74.13
2022-10-28T17:58:53.867Z,73.70
2022-10-28T18:01:22.423Z,73.87
2022-10-28T18:03:52.320Z,73.52
2022-10-28T18:06:21.866Z,73.64
2022-10-28T18:11:25.465Z,73.92
2022-10-28T18:13:56.408Z,73.72
2022-10-28T18:16:27.983Z,74.16
2022-10-28T18:18:59.344Z,74.12
2022-10-28T18:21:27.646Z,74.19
2022-10-28T18:24:03.786Z,73.96
2022-10-28T18:26:33.198Z,73.97
2022-10-28T18:29:04.059Z,73.85
2022-10-28T18:31:33.699Z,74.04
2022-10-28T18:34:03.865Z,74.12
2022-10-28T18:36:35.736Z,74.04
2022-10-28T18:39:05.509Z,74.09
2022-10-28T18:41:36.192Z,73.97
2022-10-28T18:44:05.910Z,74.16
2022-10-28T18:46:37.675Z,74.05
2022-10-28T18:49:07.698Z,73.96
2022-10-28T18:51:36.181Z,74.29
2022-10-28T18:54:05.350Z,74.31
2022-10-28T18:56:34.344Z,74.27
2022-10-28T18:59:05.438Z,74.42
2022-10-28T19:01:34.913Z,74.45
2022-10-28T19:04:05.470Z,74.01
2022-10-28T19:06:35.347Z,74.13
2022-10-28T19:09:05.637Z,74.26
2022-10-28T19:11:35.246Z,74.25
2022-10-28T19:14:05.381Z,74.33
2022-10-28T19:16:34.557Z,74.25
2022-10-28T19:19:05.010Z,74.26
2022-10-28T19:21:34.985Z,73.98
2022-10-28T19:24:03.613Z,74.19
2022-10-28T19:26:33.697Z,74.26
2022-10-28T19:29:01.943Z,74.44
2022-10-28T19:31:30.916Z,74.47
2022-10-28T19:33:59.199Z,74.53
2022-10-28T19:36:28.744Z,74.69
2022-10-28T19:38:59.348Z,74.66
2022-10-28T19:41:29.810Z,74.57
2022-10-28T19:43:59.611Z,74.66
2022-10-28T19:46:29.140Z,74.85
2022-10-28T19:48:59.076Z,74.52
2022-10-28T19:51:29.024Z,74.76
2022-10-28T19:54:00.120Z,74.72
2022-10-28T19:56:29.764Z,74.73
2022-10-28T19:59:00.056Z,74.63
2022-10-28T20:01:30.412Z,74.73
2022-10-28T20:03:59.011Z,74.45
2022-10-28T20:06:28.676Z,74.47
2022-10-28T20:08:59.491Z,74.57
2022-10-28T20:11:30.072Z,74.79
2022-10-28T20:14:00.987Z,74.75
2022-10-28T20:16:30.047Z,74.56
2022-10-28T20:18:58.952Z,74.54
2022-10-28T20:21:28.677Z,74.62
2022-10-28T20:23:58.227Z,74.67
2022-10-28T20:26:29.273Z,74.63
2022-10-28T20:28:58.534Z,74.54
2022-10-28T20:31:29.091Z,74.75
2022-10-28T20:34:00.706Z,74.88
2022-10-28T20:36:30.783Z,75.00
2022-10-28T20:39:00.649Z,74.77
2022-10-28T20:41:34.937Z,74.68
2022-10-28T20:44:04.624Z,74.68
2022-10-28T20:46:34.304Z,74.40
2022-10-28T20:49:03.021Z,74.72
2022-10-28T20:51:32.708Z,74.80
2022-10-28T20:54:02.203Z,74.60
2022-10-28T20:56:33.845Z,74.86
2022-10-28T20:59:02.341Z,74.99
2022-10-28T21:01:32.279Z,75.03
2022-10-28T21:04:02.723Z,74.87
2022-10-28T21:06:31.697Z,74.87
2022-10-28T21:09:00.623Z,74.94
2022-10-28T21:11:31.125Z,74.65
2022-10-28T21:14:01.154Z,74.52
2022-10-28T21:16:30.669Z,74.20
2022-10-28T21:18:59.988Z,74.23
2022-10-28T21:21:29.413Z,74.29
2022-10-28T21:23:57.830Z,74.54
2022-10-28T21:26:27.177Z,74.56
2022-10-28T21:28:57.488Z,75.03
2022-10-28T21:31:25.923Z,75.28
2022-10-28T21:33:54.479Z,74.98
2022-10-28T21:36:23.406Z,74.86
2022-10-28T21:38:55.152Z,74.60
2022-10-28T21:41:24.135Z,74.20
2022-10-28T21:43:54.282Z,74.27
2022-10-28T21:46:25.533Z,74.36
2022-10-28T21:48:53.924Z,73.81
2022-10-28T21:51:22.188Z,74.19
2022-10-28T21:53:50.493Z,74.43
2022-10-28T21:56:20.838Z,74.34
2022-10-28T21:58:50.844Z,74.50
2022-10-28T22:01:29.105Z,74.67
2022-10-28T22:03:59.563Z,74.91
2022-10-28T22:06:27.831Z,75.04
2022-10-28T22:08:56.802Z,74.82
2022-10-28T22:11:25.451Z,74.61
2022-10-28T22:13:58.504Z,74.55
2022-10-28T22:16:28.270Z,74.92
2022-10-28T22:18:56.954Z,75.27
2022-10-28T22:21:28.577Z,75.04
2022-10-28T22:23:57.073Z,74.94
2022-10-28T22:26:26.737Z,74.94
2022-10-28T22:28:55.290Z,75.32
2022-10-28T22:31:25.942Z,75.31
2022-10-28T22:33:55.427Z,75.58
2022-10-28T22:36:26.793Z,75.47
2022-10-28T22:38:55.268Z,75.22
2022-10-28T22:41:24.909Z,74.76
2022-10-28T22:43:54.544Z,74.64
2022-10-28T22:46:23.598Z,74.80
2022-10-28T22:48:51.862Z,74.92
2022-10-28T22:51:20.462Z,75.29
2022-10-28T22:53:50.569Z,75.13
2022-10-28T22:56:21.367Z,75.21
2022-10-28T22:58:50.086Z,75.10
2022-10-28T23:01:21.023Z,75.26
2022-10-28T23:03:51.377Z,75.18
2022-10-28T23:06:23.634Z,74.99
2022-10-28T23:08:53.549Z,74.76
2022-10-28T23:11:22.919Z,74.61
2022-10-28T23:13:53.601Z,74.96
2022-10-28T23:16:23.206Z,75.38
2022-10-28T23:18:53.004Z,75.19
2022-10-28T23:21:23.041Z,74.47
2022-10-28T23:23:55.648Z,74.97
2022-10-28T23:26:24.718Z,74.32
2022-10-28T23:28:54.574Z,74.22
2022-10-28T23:31:25.082Z,75.01
2022-10-28T23:33:54.972Z,74.76
2022-10-28T23:36:23.483Z,74.75
2022-10-28T23:38:52.557Z,74.07
2022-10-28T23:41:22.302Z,74.33
2022-10-28T23:43:50.678Z,74.31
2022-10-28T23:46:20.575Z,74.41
2022-10-28T23:48:48.858Z,74.39
2022-10-28T23:51:19.373Z,74.47
2022-10-28T23:53:47.630Z,74.19
2022-10-28T23:56:16.934Z,74.50
2022-10-28T23:58:46.640Z,74.80
